createdAt,value
2023-04-28T00:00:17.127Z,9.60
2023-04-28T00:02:43.748Z,9.70
2023-04-28T00:05:10.477Z,9.80
2023-04-28T00:07:37.371Z,9.80
2023-04-28T00:10:04.098Z,9.80
2023-04-28T00:12:30.767Z,9.80
2023-04-28T00:14:57.312Z,9.70
2023-04-28T00:17:23.932Z,9.60
2023-04-28T00:19:50.762Z,9.60
2023-04-28T00:22:17.333Z,9.60
2023-04-28T00:24:44.012Z,9.50
2023-04-28T00:27:10.634Z,9.50
2023-04-28T00:29:37.197Z,9.40
2023-04-28T00:32:04.288Z,9.40
2023-04-28T00:34:34.258Z,9.30
2023-04-28T00:37:00.796Z,9.20
2023-04-28T00:39:27.669Z,9.20
2023-04-28T00:41:54.161Z,9.20
2023-04-28T00:44:21.293Z,9.10
2023-04-28T00:46:48.196Z,9.10
2023-04-28T00:49:16.106Z,9.20
2023-04-28T00:51:42.652Z,9.10
2023-04-28T00:54:13.114Z,9.20
2023-04-28T00:56:39.737Z,9.20
2023-04-28T00:59:06.213Z,9.20
2023-04-28T01:01:33.424Z,9.20
2023-04-28T01:04:00.452Z,9.20
2023-04-28T01:06:28.560Z,9.30
2023-04-28T01:08:56.016Z,9.20
2023-04-28T01:11:22.529Z,9.20
2023-04-28T01:13:49.102Z,9.20
2023-04-28T01:16:15.700Z,9.20
2023-04-28T01:18:47.499Z,9.20
2023-04-28T01:21:14.020Z,9.20
2023-04-28T01:23:40.660Z,9.20
2023-04-28T01:26:07.193Z,9.20
2023-04-28T01:28:33.673Z,9.10
2023-04-28T01:31:01.259Z,9.10
2023-04-28T01:33:27.764Z,9.10
2023-04-28T01:35:58.513Z,9.10
2023-04-28T01:38:25.075Z,9.10
2023-04-28T01:40:51.604Z,9.00
2023-04-28T01:43:18.244Z,9.00
2023-04-28T01:45:44.779Z,9.00
2023-04-28T01:48:11.762Z,9.00
2023-04-28T01:50:38.389Z,9.00
2023-04-28T01:53:05.027Z,9.10
2023-04-28T01:55:31.588Z,9.10
2023-04-28T01:57:58.392Z,9.00
2023-04-28T02:00:25.304Z,9.10
2023-04-28T02:02:51.935Z,9.10
2023-04-28T02:05:18.560Z,9.10
2023-04-28T02:07:45.297Z,9.10
2023-04-28T02:10:11.819Z,9.10
2023-04-28T02:12:38.438Z,9.10
2023-04-28T02:15:05.487Z,9.20
2023-04-28T02:17:32.130Z,9.30
2023-04-28T02:19:58.909Z,9.30
2023-04-28T02:22:25.603Z,9.40
2023-04-28T02:24:52.352Z,9.40
2023-04-28T02:27:19.484Z,9.40
2023-04-28T02:29:45.988Z,9.40
2023-04-28T02:32:12.676Z,9.50
2023-04-28T02:34:39.454Z,9.60
2023-04-28T02:37:06.011Z,9.60
2023-04-28T02:39:33.238Z,9.60
2023-04-28T02:41:59.989Z,9.70
2023-04-28T02:44:26.851Z,9.70
2023-04-28T02:46:53.412Z,9.80
2023-04-28T02:49:20.164Z,9.90
2023-04-28T02:51:46.711Z,10.00
2023-04-28T02:54:13.382Z,10.00
2023-04-28T02:56:41.206Z,10.10
2023-04-28T02:59:07.954Z,10.00
2023-04-28T03:01:34.573Z,10.00
2023-04-28T03:04:01.674Z,10.00
2023-04-28T03:06:28.829Z,9.90
2023-04-28T03:08:55.340Z,9.90
2023-04-28T03:11:21.859Z,9.90
2023-04-28T03:13:48.361Z,9.90
2023-04-28T03:16:14.963Z,9.80
2023-04-28T03:18:41.531Z,9.70
2023-04-28T03:21:08.112Z,9.70
2023-04-28T03:23:34.655Z,9.70
2023-04-28T03:26:01.148Z,9.80
2023-04-28T03:28:27.814Z,9.80
2023-04-28T03:30:54.364Z,9.80
2023-04-28T03:33:20.964Z,9.70
2023-04-28T03:35:47.721Z,9.70
2023-04-28T03:38:14.592Z,9.70
2023-04-28T03:40:41.144Z,9.70
2023-04-28T03:43:07.716Z,9.80
2023-04-28T03:45:34.307Z,9.80
2023-04-28T03:48:01.033Z,9.80
2023-04-28T03:50:27.575Z,9.80
2023-04-28T03:52:54.126Z,9.90
2023-04-28T03:55:20.891Z,10.10
2023-04-28T03:57:47.548Z,10.10
2023-04-28T04:00:14.531Z,10.30
2023-04-28T04:02:41.546Z,10.20
2023-04-28T04:05:08.535Z,10.10
2023-04-28T04:07:35.303Z,10.20
2023-04-28T04:10:04.085Z,10.20
2023-04-28T04:12:31.113Z,10.20
2023-04-28T04:14:57.636Z,10.30
2023-04-28T04:17:24.268Z,10.30
2023-04-28T04:19:50.907Z,10.30
2023-04-28T04:22:17.454Z,10.30
2023-04-28T04:24:43.982Z,10.30
2023-04-28T04:27:10.989Z,10.40
2023-04-28T04:29:37.520Z,10.40
2023-04-28T04:32:04.201Z,10.40
2023-04-28T04:34:30.737Z,10.40
2023-04-28T04:36:57.242Z,10.50
2023-04-28T04:39:23.743Z,10.50
2023-04-28T04:41:50.215Z,10.50
2023-04-28T04:44:16.870Z,10.40
2023-04-28T04:46:43.533Z,10.50
2023-04-28T04:49:10.074Z,10.40
2023-04-28T04:51:36.647Z,10.40
2023-04-28T04:54:03.403Z,10.60
2023-04-28T04:56:29.975Z,10.70
2023-04-28T04:58:57.343Z,10.60
2023-04-28T05:01:23.980Z,10.60
2023-04-28T05:03:50.609Z,10.60
2023-04-28T05:06:17.334Z,10.50
2023-04-28T05:08:43.839Z,10.50
2023-04-28T05:11:10.467Z,10.50
2023-04-28T05:13:37.082Z,10.60
2023-04-28T05:16:03.823Z,10.60
2023-04-28T05:18:30.478Z,10.70
2023-04-28T05:20:57.003Z,10.70
2023-04-28T05:23:24.571Z,10.60
2023-04-28T05:25:51.418Z,10.60
2023-04-28T05:28:19.110Z,10.70
2023-04-28T05:30:47.152Z,10.70
2023-04-28T05:33:13.966Z,10.70
2023-04-28T05:35:40.631Z,10.70
2023-04-28T05:38:07.168Z,10.80
2023-04-28T05:40:33.719Z,10.80
2023-04-28T05:43:00.280Z,10.80
2023-04-28T05:45:26.888Z,10.80
2023-04-28T05:47:53.454Z,10.80
2023-04-28T05:50:20.054Z,10.60
2023-04-28T05:52:46.589Z,10.70
2023-04-28T05:55:13.095Z,10.70
2023-04-28T05:57:49.694Z,10.80
2023-04-28T06:00:19.566Z,10.70
2023-04-28T06:02:46.334Z,10.70
2023-04-28T06:05:13.255Z,10.80
2023-04-28T06:07:39.995Z,10.90
2023-04-28T06:10:07.137Z,10.90
2023-04-28T06:12:33.675Z,11.10
2023-04-28T06:15:00.336Z,11.20
2023-04-28T06:17:26.877Z,11.30
2023-04-28T06:19:54.518Z,11.30
2023-04-28T06:22:21.032Z,11.40
2023-04-28T06:24:47.752Z,11.60
2023-04-28T06:27:14.444Z,11.60
2023-04-28T06:29:40.941Z,11.60
2023-04-28T06:32:07.491Z,11.70
2023-04-28T06:34:35.310Z,11.80
2023-04-28T06:37:01.830Z,11.90
2023-04-28T06:39:28.369Z,11.80
2023-04-28T06:41:54.905Z,12.10
2023-04-28T06:44:21.442Z,12.10
2023-04-28T06:46:48.206Z,12.00
2023-04-28T06:49:14.817Z,12.20
2023-04-28T06:51:41.335Z,12.30
2023-04-28T06:54:07.838Z,12.30
2023-04-28T06:56:35.890Z,12.10
2023-04-28T06:59:03.328Z,12.00
2023-04-28T07:01:30.924Z,12.00
2023-04-28T07:03:57.550Z,12.00
2023-04-28T07:06:24.399Z,12.10
2023-04-28T07:08:51.614Z,12.20
2023-04-28T07:11:18.142Z,12.10
2023-04-28T07:13:49.371Z,12.30
2023-04-28T07:16:15.985Z,12.30
2023-04-28T07:18:42.644Z,12.50
2023-04-28T07:21:09.219Z,12.80
2023-04-28T07:23:35.751Z,13.20
2023-04-28T07:26:02.352Z,13.40
2023-04-28T07:28:28.933Z,13.30
2023-04-28T07:30:55.452Z,13.50
2023-04-28T07:33:21.982Z,13.60
2023-04-28T07:35:49.388Z,13.80
2023-04-28T07:38:16.141Z,14.20
2023-04-28T07:40:43.789Z,14.50
2023-04-28T07:43:10.291Z,14.60
2023-04-28T07:45:39.188Z,14.70
2023-04-28T07:48:06.370Z,15.60
2023-04-28T07:50:33.585Z,15.80
2023-04-28T07:53:00.762Z,15.80
2023-04-28T07:55:27.297Z,15.50
2023-04-28T07:57:54.540Z,15.50
2023-04-28T08:00:21.301Z,14.80
2023-04-28T08:02:48.095Z,14.50
2023-04-28T08:05:16.146Z,14.20
2023-04-28T08:07:43.041Z,14.10
2023-04-28T08:10:12.791Z,14.10
2023-04-28T08:12:40.659Z,13.60
2023-04-28T08:15:09.207Z,13.40
2023-04-28T08:17:35.802Z,13.60
2023-04-28T08:20:02.396Z,13.30
2023-04-28T08:22:28.944Z,13.40
2023-04-28T08:24:55.644Z,13.40
2023-04-28T08:27:23.669Z,13.50
2023-04-28T08:29:50.190Z,13.40
2023-04-28T08:32:16.817Z,13.20
2023-04-28T08:34:43.374Z,13.20
2023-04-28T08:37:09.941Z,13.40
2023-04-28T08:39:36.763Z,13.40
2023-04-28T08:42:07.241Z,13.50
2023-04-28T08:44:39.233Z,13.60
2023-04-28T08:47:14.119Z,13.50
2023-04-28T08:49:41.546Z,13.80
2023-04-28T08:52:14.785Z,13.80
2023-04-28T08:54:42.017Z,13.90
2023-04-28T08:57:09.883Z,14.00
2023-04-28T08:59:42.444Z,14.10
2023-04-28T09:02:09.648Z,14.30
2023-04-28T09:04:36.837Z,14.40
2023-04-28T09:07:03.623Z,14.40
2023-04-28T09:09:34.655Z,14.50
2023-04-28T09:12:05.165Z,14.50
2023-04-28T09:14:34.225Z,14.50
2023-04-28T09:17:01.960Z,14.50
2023-04-28T09:19:38.899Z,14.60
2023-04-28T09:22:21.678Z,14.60
2023-04-28T09:24:53.005Z,14.50
2023-04-28T09:27:29.412Z,14.70
2023-04-28T09:29:56.364Z,14.80
2023-04-28T09:32:23.842Z,15.00
2023-04-28T09:34:53.638Z,15.10
2023-04-28T09:37:22.438Z,15.30
2023-04-28T09:39:54.297Z,15.30
2023-04-28T09:42:39.926Z,15.20
2023-04-28T09:45:11.757Z,15.30
2023-04-28T09:47:40.881Z,15.30
2023-04-28T09:50:11.631Z,15.30
2023-04-28T09:52:38.646Z,15.30
2023-04-28T09:55:08.578Z,15.40
2023-04-28T09:57:36.137Z,15.50
2023-04-28T10:00:06.338Z,15.50
2023-04-28T10:05:08.921Z,16.10
2023-04-28T10:07:36.078Z,16.50
2023-04-28T10:10:04.036Z,16.80
2023-04-28T10:12:32.408Z,17.20
2023-04-28T10:15:00.378Z,17.40
2023-04-28T10:17:29.106Z,17.40
2023-04-28T10:19:55.871Z,17.40
2023-04-28T10:22:58.397Z,17.30
2023-04-28T10:25:35.630Z,17.20
2023-04-28T10:28:07.337Z,16.90
2023-04-28T10:30:34.961Z,16.70
2023-04-28T10:33:14.002Z,16.80
2023-04-28T10:35:42.708Z,16.80
2023-04-28T10:38:13.680Z,16.90
2023-04-28T10:40:41.384Z,17.10
2023-04-28T10:43:09.805Z,17.40
2023-04-28T10:45:57.583Z,17.60
2023-04-28T10:48:33.990Z,18.00
2023-04-28T10:51:04.022Z,18.50
2023-04-28T10:53:46.205Z,19.10
2023-04-28T10:56:19.832Z,19.20
2023-04-28T10:58:48.791Z,19.70
2023-04-28T11:01:22.097Z,20.40
2023-04-28T11:04:10.781Z,20.60
2023-04-28T11:06:40.485Z,20.50
2023-04-28T11:09:15.853Z,20.60
2023-04-28T11:11:54.510Z,20.40
2023-04-28T11:14:21.009Z,19.90
2023-04-28T11:16:59.878Z,19.70
2023-04-28T11:19:28.773Z,19.70
2023-04-28T11:21:57.486Z,19.40
2023-04-28T11:24:25.735Z,19.30
2023-04-28T11:26:53.192Z,19.00
2023-04-28T11:29:38.309Z,18.90
2023-04-28T11:32:09.797Z,19.00
2023-04-28T11:34:37.384Z,18.90
2023-04-28T11:37:05.767Z,19.00
2023-04-28T11:39:34.188Z,19.00
2023-04-28T11:42:02.606Z,19.50
2023-04-28T11:44:31.110Z,19.90
2023-04-28T11:47:02.803Z,20.30
2023-04-28T11:49:46.374Z,20.40
2023-04-28T11:52:13.661Z,19.70
2023-04-28T11:54:43.272Z,19.50
2023-04-28T11:57:21.353Z,19.50
2023-04-28T11:59:48.899Z,20.80
2023-04-28T12:02:17.590Z,21.70
2023-04-28T12:04:44.481Z,21.90
2023-04-28T12:07:19.538Z,21.60
2023-04-28T12:10:19.932Z,21.30
2023-04-28T12:12:51.931Z,21.60
2023-04-28T12:15:21.197Z,22.00
2023-04-28T12:17:48.481Z,22.50
2023-04-28T12:20:38.465Z,22.80
2023-04-28T12:23:06.119Z,22.70
2023-04-28T12:25:33.991Z,22.80
2023-04-28T12:28:03.350Z,22.70
2023-04-28T12:30:35.020Z,22.30
2023-04-28T12:33:01.824Z,22.20
2023-04-28T12:35:29.309Z,22.00
2023-04-28T12:37:58.354Z,22.70
2023-04-28T12:40:24.934Z,22.20
2023-04-28T12:42:51.597Z,22.10
2023-04-28T12:45:18.426Z,22.20
2023-04-28T12:47:45.002Z,22.80
2023-04-28T12:50:11.836Z,22.70
2023-04-28T12:52:38.370Z,23.30
2023-04-28T12:55:05.612Z,22.50
2023-04-28T12:57:32.275Z,22.70
2023-04-28T12:59:58.791Z,22.40
2023-04-28T13:02:25.598Z,22.40
2023-04-28T13:04:53.055Z,21.70
2023-04-28T13:07:20.092Z,22.40
2023-04-28T13:09:47.661Z,23.60
2023-04-28T13:12:15.502Z,23.30
2023-04-28T13:14:42.248Z,23.50
2023-04-28T13:17:09.961Z,23.30
2023-04-28T13:19:36.835Z,23.40
2023-04-28T13:22:05.363Z,23.20
2023-04-28T13:24:33.373Z,22.20
2023-04-28T13:27:00.216Z,21.50
2023-04-28T13:29:27.004Z,21.60
2023-04-28T13:31:53.691Z,22.40
2023-04-28T13:34:20.256Z,22.70
2023-04-28T13:36:50.544Z,22.50
2023-04-28T13:39:19.306Z,22.50
2023-04-28T13:41:45.841Z,23.00
2023-04-28T13:44:12.358Z,23.50
2023-04-28T13:46:39.101Z,22.70
2023-04-28T13:49:05.874Z,21.80
2023-04-28T13:51:32.902Z,22.00
2023-04-28T13:53:59.414Z,23.10
2023-04-28T13:56:26.289Z,23.80
2023-04-28T13:58:52.936Z,24.10
2023-04-28T14:01:19.583Z,23.10
2023-04-28T14:03:46.489Z,22.80
2023-04-28T14:06:13.366Z,22.00
2023-04-28T14:08:39.957Z,21.30
2023-04-28T14:11:06.490Z,21.00
2023-04-28T14:13:33.267Z,22.00
2023-04-28T14:16:00.068Z,21.80
2023-04-28T14:18:27.628Z,21.90
2023-04-28T14:20:54.802Z,22.50
2023-04-28T14:23:24.253Z,22.00
2023-04-28T14:25:58.431Z,20.90
2023-04-28T14:28:25.083Z,20.40
2023-04-28T14:30:54.211Z,19.90
2023-04-28T14:33:21.208Z,19.80
2023-04-28T14:35:48.113Z,20.40
2023-04-28T14:38:14.666Z,21.10
2023-04-28T14:40:42.826Z,20.70
2023-04-28T14:43:09.407Z,20.80
2023-04-28T14:45:37.085Z,20.60
2023-04-28T14:48:04.243Z,20.50
2023-04-28T14:50:30.868Z,20.10
2023-04-28T14:53:05.022Z,19.90
2023-04-28T14:55:31.743Z,19.70
2023-04-28T14:57:58.248Z,19.50
2023-04-28T15:00:25.024Z,19.60
2023-04-28T15:02:51.640Z,20.00
2023-04-28T15:05:18.474Z,20.20
2023-04-28T15:07:45.024Z,20.20
2023-04-28T15:10:11.679Z,19.50
2023-04-28T15:12:38.178Z,19.50
2023-04-28T15:15:05.029Z,19.30
2023-04-28T15:17:31.802Z,18.90
2023-04-28T15:19:58.476Z,18.50
2023-04-28T15:22:25.081Z,18.20
2023-04-28T15:24:52.141Z,17.50
2023-04-28T15:27:18.707Z,17.20
2023-04-28T15:29:45.247Z,17.20
2023-04-28T15:32:12.094Z,17.10
2023-04-28T15:34:38.769Z,17.00
2023-04-28T15:37:29.250Z,16.90
2023-04-28T15:39:55.807Z,16.90
2023-04-28T15:42:22.438Z,16.80
2023-04-28T15:44:49.212Z,16.90
2023-04-28T15:47:15.842Z,16.70
2023-04-28T15:49:42.640Z,16.50
2023-04-28T15:52:09.258Z,16.40
2023-04-28T15:54:36.132Z,16.30
2023-04-28T15:57:03.357Z,16.20
2023-04-28T15:59:31.015Z,16.10
2023-04-28T16:01:57.544Z,16.00
2023-04-28T16:04:24.205Z,16.00
2023-04-28T16:06:52.032Z,16.00
2023-04-28T16:09:19.131Z,16.00
2023-04-28T16:11:46.944Z,16.10
2023-04-28T16:14:13.519Z,16.10
2023-04-28T16:16:40.132Z,16.00
2023-04-28T16:19:06.666Z,15.90
2023-04-28T16:21:33.212Z,15.90
2023-04-28T16:23:59.773Z,15.80
2023-04-28T16:26:26.654Z,15.80
2023-04-28T16:28:53.139Z,15.70
2023-04-28T16:31:19.651Z,15.70
2023-04-28T16:33:46.186Z,15.60
2023-04-28T16:36:12.817Z,15.50
2023-04-28T16:38:39.369Z,15.50
2023-04-28T16:41:05.885Z,15.40
2023-04-28T16:43:32.709Z,15.30
2023-04-28T16:45:59.931Z,15.40
2023-04-28T16:48:27.539Z,15.40
2023-04-28T16:50:54.025Z,15.50
2023-04-28T16:53:20.726Z,15.60
2023-04-28T16:55:47.807Z,15.70
2023-04-28T16:58:14.381Z,15.70
2023-04-28T17:00:41.254Z,15.70
2023-04-28T17:03:07.849Z,15.60
2023-04-28T17:05:34.981Z,15.60
2023-04-28T17:08:02.365Z,15.60
2023-04-28T17:10:29.142Z,15.60
2023-04-28T17:12:55.865Z,15.50
2023-04-28T17:15:22.521Z,15.40
2023-04-28T17:17:50.019Z,15.40
2023-04-28T17:20:19.601Z,15.30
2023-04-28T17:22:47.433Z,15.30
2023-04-28T17:25:14.083Z,15.30
2023-04-28T17:27:40.633Z,15.20
2023-04-28T17:30:13.148Z,15.20
2023-04-28T17:32:39.921Z,15.20
2023-04-28T17:35:06.985Z,15.20
2023-04-28T17:37:34.649Z,15.20
2023-04-28T17:40:01.854Z,15.10
2023-04-28T17:42:31.817Z,15.10
2023-04-28T17:44:58.358Z,15.10
2023-04-28T17:47:24.926Z,15.10
2023-04-28T17:49:51.785Z,15.00
2023-04-28T17:52:18.440Z,15.10
2023-04-28T17:54:44.969Z,15.00
2023-04-28T17:57:12.303Z,15.00
2023-04-28T17:59:39.749Z,15.00
2023-04-28T18:02:11.461Z,15.00
2023-04-28T18:04:38.561Z,15.00
2023-04-28T18:07:06.541Z,14.90
2023-04-28T18:09:33.311Z,14.90
2023-04-28T18:12:02.838Z,14.90
2023-04-28T18:14:29.791Z,14.90
2023-04-28T18:16:56.423Z,14.90
2023-04-28T18:19:23.797Z,14.90
2023-04-28T18:21:50.566Z,14.90
2023-04-28T18:24:17.240Z,14.90
2023-04-28T18:26:43.791Z,14.90
2023-04-28T18:29:10.532Z,14.80
2023-04-28T18:31:37.184Z,14.80
2023-04-28T18:34:04.979Z,14.70
2023-04-28T18:36:35.864Z,14.60
2023-04-28T18:39:03.934Z,14.60
2023-04-28T18:41:31.727Z,14.60
2023-04-28T18:43:58.395Z,14.50
2023-04-28T18:46:25.714Z,14.50
2023-04-28T18:48:52.872Z,14.40
2023-04-28T18:51:20.071Z,14.40
2023-04-28T18:53:46.796Z,14.40
2023-04-28T18:56:13.312Z,14.40
2023-04-28T18:58:42.578Z,14.30
2023-04-28T19:01:16.578Z,14.30
2023-04-28T19:03:43.943Z,14.20
2023-04-28T19:06:11.511Z,14.20
2023-04-28T19:08:42.866Z,14.30
2023-04-28T19:11:09.789Z,14.20
2023-04-28T19:13:37.457Z,14.20
2023-04-28T19:16:04.800Z,14.20
2023-04-28T19:18:32.325Z,14.20
2023-04-28T19:21:08.553Z,14.30
2023-04-28T19:23:35.350Z,14.40
2023-04-28T19:26:01.919Z,14.40
2023-04-28T19:28:29.026Z,14.40
2023-04-28T19:30:59.140Z,14.30
2023-04-28T19:33:28.192Z,14.20
2023-04-28T19:35:55.195Z,14.10
2023-04-28T19:38:23.098Z,14.10
2023-04-28T19:40:50.767Z,14.10
2023-04-28T19:43:17.886Z,14.00
2023-04-28T19:45:46.414Z,14.00
2023-04-28T19:48:14.188Z,14.00
2023-04-28T19:50:41.825Z,13.90
2023-04-28T19:53:08.400Z,14.00
2023-04-28T19:55:36.341Z,14.00
2023-04-28T19:58:03.822Z,14.00
2023-04-28T20:00:32.312Z,14.00
2023-04-28T20:02:59.645Z,13.90
2023-04-28T20:05:26.322Z,13.90
2023-04-28T20:07:55.966Z,13.80
2023-04-28T20:10:23.436Z,13.80
2023-04-28T20:12:49.981Z,13.80
2023-04-28T20:15:17.138Z,13.80
2023-04-28T20:17:43.789Z,13.80
2023-04-28T20:20:11.782Z,13.60
2023-04-28T20:22:38.311Z,13.40
2023-04-28T20:25:05.994Z,13.20
2023-04-28T20:27:35.301Z,13.00
2023-04-28T20:30:02.675Z,13.00
2023-04-28T20:32:29.295Z,13.00
2023-04-28T20:34:55.863Z,13.00
2023-04-28T20:37:23.328Z,12.90
2023-04-28T20:39:50.693Z,12.90
2023-04-28T20:42:17.694Z,12.80
2023-04-28T20:44:46.249Z,12.80
2023-04-28T20:47:13.437Z,12.80
2023-04-28T20:49:40.270Z,12.70
2023-04-28T20:52:06.835Z,12.80
2023-04-28T20:54:35.730Z,12.80
2023-04-28T20:57:04.330Z,12.80
2023-04-28T20:59:32.804Z,12.80
2023-04-28T21:02:00.177Z,12.80
2023-04-28T21:04:27.823Z,12.80
2023-04-28T21:06:54.326Z,12.80
2023-04-28T21:09:20.976Z,12.80
2023-04-28T21:11:47.942Z,12.80
2023-04-28T21:14:15.507Z,12.70
2023-04-28T21:16:43.323Z,12.70
2023-04-28T21:19:10.541Z,12.70
2023-04-28T21:21:37.515Z,12.70
2023-04-28T21:24:05.677Z,12.60
2023-04-28T21:26:32.270Z,12.60
2023-04-28T21:28:59.035Z,12.60
2023-04-28T21:31:26.413Z,12.60
2023-04-28T21:33:53.399Z,12.60
2023-04-28T21:36:20.030Z,12.50
2023-04-28T21:38:46.795Z,12.50
2023-04-28T21:41:13.397Z,12.50
2023-04-28T21:43:40.669Z,12.50
2023-04-28T21:46:07.286Z,12.50
2023-04-28T21:48:33.912Z,12.50
2023-04-28T21:51:01.079Z,12.50
2023-04-28T21:53:28.499Z,12.60
2023-04-28T21:55:55.151Z,12.60
2023-04-28T21:58:21.653Z,12.50
2023-04-28T22:00:48.552Z,12.40
2023-04-28T22:03:15.891Z,12.40
2023-04-28T22:05:44.045Z,12.40
2023-04-28T22:08:10.745Z,12.30
2023-04-28T22:10:37.516Z,12.30
2023-04-28T22:13:05.153Z,12.30
2023-04-28T22:15:32.020Z,12.20
2023-04-28T22:17:58.670Z,12.20
2023-04-28T22:20:25.281Z,12.20
2023-04-28T22:22:51.820Z,12.20
2023-04-28T22:25:18.387Z,12.10
2023-04-28T22:27:44.892Z,12.10
2023-04-28T22:30:12.432Z,12.00
2023-04-28T22:32:39.086Z,12.00
2023-04-28T22:35:06.433Z,12.00
2023-04-28T22:37:33.907Z,11.90
2023-04-28T22:40:00.485Z,11.90
2023-04-28T22:42:27.416Z,11.80
2023-04-28T22:44:53.951Z,11.80
2023-04-28T22:47:20.827Z,11.80
2023-04-28T22:49:47.637Z,11.70
2023-04-28T22:52:14.202Z,11.70
2023-04-28T22:54:40.731Z,11.70
2023-04-28T22:57:07.492Z,11.70
2023-04-28T22:59:34.020Z,11.70
2023-04-28T23:02:02.215Z,11.70
2023-04-28T23:04:29.604Z,11.70
2023-04-28T23:06:56.364Z,11.70
2023-04-28T23:09:22.935Z,11.60
2023-04-28T23:11:49.483Z,11.60
2023-04-28T23:14:16.000Z,11.60
2023-04-28T23:16:42.571Z,11.50
2023-04-28T23:19:09.104Z,11.50
2023-04-28T23:21:35.793Z,11.50
2023-04-28T23:24:02.317Z,11.40
2023-04-28T23:26:28.864Z,11.30
2023-04-28T23:28:55.419Z,11.30
2023-04-28T23:31:22.221Z,11.30
2023-04-28T23:33:49.005Z,11.30
2023-04-28T23:36:15.708Z,11.30
2023-04-28T23:38:42.298Z,11.20
2023-04-28T23:41:08.998Z,11.10
2023-04-28T23:43:35.838Z,11.20
2023-04-28T23:46:02.571Z,11.20
2023-04-28T23:48:29.187Z,11.20
2023-04-28T23:50:56.392Z,11.10
2023-04-28T23:53:22.991Z,11.20
2023-04-28T23:55:49.952Z,11.10
2023-04-28T23:58:17.186Z,11.10
